Time;durP1;ratioP1;P1;durP2;ratioP2;P2;SDS_P1;SDS_P2;PMS_P1;PMS_P2;Temp;Humidity;BMP_temperature;BMP_pressure;BME280_temperature;BME280_humidity;BME280_pressure;Samples;Min_cycle;Max_cycle;Signal;HPM_P1;HPM_P2
2022/04/17 00:00:31;;;;;;;8.35;3.35;;;7.80;74.80;;;;;;5055531;28;20033;-74
2022/04/17 00:02:57;;;;;;;5.70;3.35;;;7.80;75.50;;;;;;5055478;28;20079;-74
2022/04/17 00:05:23;;;;;;;5.20;3.13;;;7.90;76.10;;;;;;5056051;28;20418;-74
2022/04/17 00:07:48;;;;;;;5.43;2.97;;;7.80;75.30;;;;;;5055914;28;20049;-74
2022/04/17 00:10:14;;;;;;;7.30;3.13;;;7.80;75.80;;;;;;5056345;28;20044;-74
2022/04/17 00:12:40;;;;;;;6.20;3.40;;;7.80;75.40;;;;;;5055361;28;20128;-74
2022/04/17 00:15:09;;;;;;;6.32;3.42;;;7.80;78.70;;;;;;5055324;28;20102;-74
2022/04/17 00:17:38;;;;;;;6.63;3.30;;;7.80;77.70;;;;;;5037694;28;20041;-74
2022/04/17 00:20:05;;;;;;;7.25;3.20;;;7.80;77.20;;;;;;5055215;28;20048;-74
2022/04/17 00:22:31;;;;;;;9.73;4.45;;;7.70;77.40;;;;;;5055312;28;20186;-74
2022/04/17 00:24:59;;;;;;;7.13;4.00;;;7.70;77.60;;;;;;5055139;28;20128;-74
2022/04/17 00:27:24;;;;;;;7.32;3.78;;;7.60;78.00;;;;;;5055022;28;20092;-74
2022/04/17 00:29:50;;;;;;;6.57;3.83;;;7.60;79.30;;;;;;5055555;28;20080;-75
2022/04/17 00:32:16;;;;;;;5.43;3.20;;;7.60;79.20;;;;;;5035576;28;20053;-75
2022/04/17 00:34:44;;;;;;;5.67;2.93;;;7.60;79.40;;;;;;5054957;28;20053;-74
2022/04/17 00:37:10;;;;;;;6.70;3.42;;;7.60;80.00;;;;;;5054899;28;20098;-74
2022/04/17 00:39:36;;;;;;;7.57;3.20;;;7.60;81.00;;;;;;5054525;28;20123;-74
2022/04/17 00:42:04;;;;;;;6.73;3.40;;;7.60;80.80;;;;;;5054857;28;20048;-74
2022/04/17 00:44:30;;;;;;;7.28;3.67;;;7.50;81.50;;;;;;5055187;28;20049;-74
2022/04/17 00:46:56;;;;;;;6.20;3.30;;;7.50;82.30;;;;;;5054588;28;20116;-74
2022/04/17 00:49:22;;;;;;;7.97;3.97;;;7.50;81.90;;;;;;5054355;28;20048;-74
2022/04/17 00:51:48;;;;;;;7.63;3.60;;;7.40;82.00;;;;;;5054022;28;20650;-74
2022/04/17 00:54:14;;;;;;;7.83;3.87;;;7.40;82.00;;;;;;5054578;28;20056;-74
2022/04/17 00:56:41;;;;;;;7.72;3.30;;;7.30;83.00;;;;;;5054648;28;20056;-74
2022/04/17 00:59:10;;;;;;;6.40;3.47;;;7.30;83.90;;;;;;5055024;28;20084;-74
2022/04/17 01:01:37;;;;;;;6.80;3.67;;;7.30;83.90;;;;;;5054384;28;20440;-75
2022/04/17 01:04:04;;;;;;;6.72;3.40;;;7.30;84.00;;;;;;5054363;28;20045;-74
2022/04/17 01:06:33;;;;;;;7.75;3.83;;;7.30;84.30;;;;;;5054231;28;20508;-74
2022/04/17 01:09:00;;;;;;;8.63;4.20;;;7.30;83.60;;;;;;5054224;28;20192;-74
2022/04/17 01:11:26;;;;;;;9.32;4.13;;;7.30;84.70;;;;;;5054180;28;20048;-75
2022/04/17 01:13:53;;;;;;;7.55;3.90;;;7.40;85.60;;;;;;5054255;28;20092;-74
2022/04/17 01:16:23;;;;;;;6.75;3.90;;;7.30;85.10;;;;;;5054093;28;20064;-74
2022/04/17 01:19:11;;;;;;;7.90;4.15;;;7.30;86.10;;;;;;5036616;28;20052;-74
2022/04/17 01:21:37;;;;;;;7.68;3.53;;;7.30;86.10;;;;;;5054328;28;20052;-74
2022/04/17 01:26:56;;;;;;;6.60;4.20;;;7.30;83.90;;;;;;5054514;28;20079;-74
2022/04/17 01:29:32;;;;;;;;;;;7.30;83.40;;;;;;5054496;28;20047;-74
2022/04/17 01:32:04;;;;;;;9.57;4.22;;;7.20;82.80;;;;;;5053838;28;19931;-74
2022/04/17 01:34:30;;;;;;;7.47;4.20;;;7.10;83.20;;;;;;5054378;28;20052;-74
2022/04/17 01:36:56;;;;;;;7.43;4.40;;;7.20;84.00;;;;;;5053762;28;20057;-75
2022/04/17 01:39:22;;;;;;;8.60;4.28;;;7.10;83.20;;;;;;5053709;28;20067;-75
2022/04/17 01:41:51;;;;;;;7.50;4.27;;;7.10;83.30;;;;;;5053607;28;20041;-74
2022/04/17 01:44:17;;;;;;;7.18;4.25;;;7.10;83.50;;;;;;5053394;28;20045;-74
2022/04/17 01:46:44;;;;;;;7.93;4.37;;;7.20;83.60;;;;;;5053645;28;20056;-74
2022/04/17 01:49:11;;;;;;;8.15;4.18;;;7.10;82.20;;;;;;5053786;28;20294;-74
2022/04/17 01:51:38;;;;;;;9.55;4.85;;;7.10;83.30;;;;;;5031855;28;20466;-74
2022/04/17 01:54:09;;;;;;;9.38;4.97;;;7.10;82.20;;;;;;5033604;28;20128;-74
2022/04/17 01:56:36;;;;;;;8.45;4.90;;;7.00;82.00;;;;;;5033573;28;20045;-74
2022/04/17 01:59:05;;;;;;;10.02;4.85;;;7.00;83.00;;;;;;5033552;28;20056;-74
2022/04/17 02:01:32;;;;;;;7.95;4.55;;;7.00;82.50;;;;;;5033518;28;20042;-74
2022/04/17 02:03:58;;;;;;;10.48;4.75;;;6.90;83.40;;;;;;5033460;28;20149;-74
2022/04/17 02:06:24;;;;;;;10.32;4.75;;;6.90;83.10;;;;;;5033533;28;20128;-74
2022/04/17 02:08:51;;;;;;;9.17;4.93;;;6.90;83.90;;;;;;5033933;28;20128;-74
2022/04/17 02:11:17;;;;;;;9.10;4.95;;;6.90;83.80;;;;;;5032409;28;20046;-74
2022/04/17 02:13:43;;;;;;;8.75;4.85;;;6.80;83.50;;;;;;5033040;28;20413;-74
2022/04/17 02:16:09;;;;;;;8.57;4.80;;;6.80;83.80;;;;;;5033458;28;20045;-75
2022/04/17 02:18:34;;;;;;;8.50;4.73;;;6.80;84.20;;;;;;5033609;28;20050;-74
2022/04/17 02:21:01;;;;;;;7.83;5.30;;;6.80;84.60;;;;;;5033846;28;20049;-75
2022/04/17 02:23:26;;;;;;;9.60;5.10;;;6.70;84.80;;;;;;5033240;28;20481;-75
2022/04/17 02:25:52;;;;;;;8.27;5.27;;;6.80;85.40;;;;;;5032294;28;20052;-74
2022/04/17 02:28:18;;;;;;;8.37;4.90;;;6.80;86.00;;;;;;5033330;28;20142;-76
2022/04/17 02:30:43;;;;;;;9.07;5.03;;;6.70;85.90;;;;;;5033126;28;20050;-75
2022/04/17 02:33:10;;;;;;;8.50;5.60;;;6.70;86.00;;;;;;5033059;28;20378;-75
2022/04/17 02:35:36;;;;;;;9.13;5.03;;;6.60;86.40;;;;;;5033698;28;20084;-75
2022/04/17 02:38:02;;;;;;;10.10;4.90;;;6.60;87.20;;;;;;5032181;28;20080;-75
2022/04/17 02:40:28;;;;;;;8.00;5.00;;;6.60;87.00;;;;;;5033078;28;20092;-75
2022/04/17 02:42:53;;;;;;;8.77;5.67;;;6.60;87.70;;;;;;5032153;28;20068;-74
2022/04/17 02:45:20;;;;;;;12.80;6.10;;;6.50;89.80;;;;;;5033131;28;20072;-74
2022/04/17 02:47:46;;;;;;;9.38;6.05;;;6.50;89.80;;;;;;5033050;28;20042;-74
2022/04/17 02:50:17;;;;;;;6.47;4.57;;;6.50;90.10;;;;;;5032956;28;20092;-76
2022/04/17 02:52:43;;;;;;;7.25;5.18;;;6.50;90.50;;;;;;5050052;28;20061;-74
2022/04/17 02:55:10;;;;;;;8.97;5.83;;;6.50;90.30;;;;;;5052883;28;20122;-74
2022/04/17 02:57:36;;;;;;;10.02;5.47;;;6.60;90.90;;;;;;5057162;28;20049;-74
2022/04/17 03:00:04;;;;;;;8.83;5.40;;;6.60;91.20;;;;;;5056670;28;20095;-74
2022/04/17 03:07:58;;;;;;;9.45;5.93;;;6.50;92.70;;;;;;5057181;28;20059;-74
2022/04/17 03:10:24;;;;;;;8.60;5.38;;;6.50;93.40;;;;;;5056990;28;20436;-75
2022/04/17 03:12:50;;;;;;;10.18;5.80;;;6.50;93.50;;;;;;5056439;28;20084;-74
2022/04/17 03:15:16;;;;;;;8.50;5.67;;;6.50;93.70;;;;;;5056409;28;20132;-74
2022/04/17 03:17:42;;;;;;;11.20;6.10;;;6.40;94.00;;;;;;5056340;28;20119;-74
2022/04/17 03:20:08;;;;;;;8.40;5.23;;;6.40;94.30;;;;;;5055064;28;20094;-74
2022/04/17 03:22:34;;;;;;;10.38;5.78;;;6.40;94.10;;;;;;5038875;28;20111;-74
2022/04/17 03:25:01;;;;;;;8.67;5.10;;;6.40;94.40;;;;;;5056658;28;20473;-74
2022/04/17 03:27:30;;;;;;;10.15;5.78;;;6.40;94.20;;;;;;5038558;28;20097;-74
2022/04/17 03:29:56;;;;;;;9.38;5.45;;;6.40;94.40;;;;;;5056670;28;20132;-74
2022/04/17 03:32:22;;;;;;;10.00;5.70;;;6.30;94.10;;;;;;5055977;28;20073;-74
2022/04/17 03:34:48;;;;;;;11.60;5.87;;;6.30;94.00;;;;;;5056022;28;20084;-74
2022/04/17 03:37:27;;;;;;;8.90;5.53;;;6.30;94.10;;;;;;5152102;27;20397;-74
2022/04/17 03:39:53;;;;;;;8.70;5.43;;;;;;;;;;5151846;27;20535;-74
2022/04/17 03:42:22;;;;;;;9.73;6.20;;;6.10;94.20;;;;;;5152074;27;20054;-74
2022/04/17 03:44:48;;;;;;;8.75;5.40;;;6.10;94.80;;;;;;5151771;27;20085;-74
2022/04/17 03:47:13;;;;;;;7.70;5.33;;;6.10;94.50;;;;;;5152172;27;20074;-74
2022/04/17 03:49:39;;;;;;;9.20;6.57;;;6.00;94.60;;;;;;5151884;27;20211;-74
2022/04/17 03:52:05;;;;;;;10.80;6.17;;;6.00;94.60;;;;;;5150531;27;20054;-74
2022/04/17 03:54:31;;;;;;;11.48;5.95;;;6.00;94.80;;;;;;5133768;27;20440;-74
2022/04/17 03:56:57;;;;;;;9.73;5.83;;;5.90;95.30;;;;;;5151786;27;20047;-74
2022/04/17 03:59:22;;;;;;;9.68;5.55;;;5.90;95.30;;;;;;5151696;27;20055;-74
2022/04/17 04:01:49;;;;;;;10.83;6.40;;;;;;;;;;5151454;27;20050;-74
2022/04/17 04:04:15;;;;;;;10.32;6.05;;;5.90;95.20;;;;;;5151675;27;20129;-74
2022/04/17 04:06:44;;;;;;;9.07;6.05;;;5.80;95.40;;;;;;5151653;27;20082;-74
2022/04/17 04:09:09;;;;;;;10.60;6.28;;;5.80;95.90;;;;;;5151629;27;20043;-74
2022/04/17 04:11:35;;;;;;;13.60;6.00;;;5.80;95.60;;;;;;5151480;27;20080;-74
2022/04/17 04:14:03;;;;;;;11.07;6.57;;;5.80;96.00;;;;;;5151257;27;20099;-74
2022/04/17 04:16:29;;;;;;;10.68;5.80;;;5.80;96.00;;;;;;5151536;27;20046;-75
2022/04/17 04:18:55;;;;;;;8.77;6.23;;;5.80;96.00;;;;;;5149861;27;20344;-74
2022/04/17 04:21:21;;;;;;;10.47;6.67;;;5.80;96.50;;;;;;5151006;27;20047;-74
2022/04/17 04:23:46;;;;;;;11.07;6.13;;;5.70;96.50;;;;;;5149631;27;20046;-75
2022/04/17 04:26:12;;;;;;;13.27;6.37;;;5.80;96.50;;;;;;5149500;27;20526;-75
2022/04/17 04:28:38;;;;;;;10.73;6.30;;;5.70;96.60;;;;;;5151285;27;20127;-75
2022/04/17 04:31:11;;;;;;;10.07;6.60;;;5.60;96.60;;;;;;5151229;27;20043;-75
2022/04/17 04:33:42;;;;;;;12.95;6.88;;;5.60;97.20;;;;;;5151281;27;20047;-75
2022/04/17 04:36:11;;;;;;;9.95;6.90;;;5.60;97.30;;;;;;5150753;27;20054;-75
2022/04/17 04:38:37;;;;;;;11.70;6.53;;;5.70;97.60;;;;;;5151038;27;20051;-75
2022/04/17 04:41:04;;;;;;;10.00;6.50;;;5.60;97.80;;;;;;5150776;27;20047;-74
2022/04/17 04:43:30;;;;;;;9.55;6.55;;;5.70;97.80;;;;;;5150907;27;20543;-74
2022/04/17 04:46:17;;;;;;;12.68;7.93;;;5.60;97.50;;;;;;5150599;27;20046;-75
2022/04/17 04:51:29;;;;;;;10.18;6.53;;;5.60;97.70;;;;;;5136974;27;20116;-75
2022/04/17 04:53:56;;;;;;;10.63;6.63;;;5.60;97.60;;;;;;5136639;27;20047;-75
2022/04/17 04:56:23;;;;;;;11.75;6.90;;;5.60;98.10;;;;;;5137128;27;20045;-75
2022/04/17 04:58:50;;;;;;;15.57;7.18;;;5.60;98.30;;;;;;5136729;27;20049;-74
2022/04/17 05:01:15;;;;;;;10.85;6.60;;;5.60;98.20;;;;;;5136780;27;20070;-75
2022/04/17 05:03:41;;;;;;;14.17;6.97;;;5.60;98.50;;;;;;5136711;27;20047;-75
2022/04/17 05:06:10;;;;;;;10.07;6.50;;;5.60;98.80;;;;;;5136419;27;20096;-75
2022/04/17 05:08:36;;;;;;;11.30;6.63;;;5.60;98.60;;;;;;5136632;27;20043;-75
2022/04/17 05:11:02;;;;;;;10.40;7.00;;;5.60;98.90;;;;;;5136441;27;20072;-75
2022/04/17 05:13:27;;;;;;;10.17;6.90;;;5.60;98.50;;;;;;5136703;27;20053;-75
2022/04/17 05:15:53;;;;;;;9.80;6.70;;;5.70;98.80;;;;;;5135075;27;20039;-75
2022/04/17 05:18:19;;;;;;;8.83;6.13;;;5.70;98.60;;;;;;5136496;27;20043;-75
2022/04/17 05:20:44;;;;;;;10.27;7.00;;;5.70;98.60;;;;;;5136455;27;20547;-75
2022/04/17 05:23:26;;;;;;;10.00;6.70;;;5.70;98.50;;;;;;5135094;27;20571;-75
2022/04/17 05:25:54;;;;;;;13.18;6.53;;;5.80;98.40;;;;;;5136145;27;20049;-74
2022/04/17 05:28:21;;;;;;;11.90;7.10;;;5.80;98.30;;;;;;5136188;27;20054;-75
2022/04/17 05:30:47;;;;;;;11.82;7.43;;;5.80;98.40;;;;;;5136328;27;20107;-75
2022/04/17 05:33:16;;;;;;;10.15;6.93;;;5.90;98.40;;;;;;5135911;27;20039;-75
2022/04/17 05:35:42;;;;;;;11.07;6.93;;;5.90;98.30;;;;;;5136004;27;20470;-74
2022/04/17 05:38:08;;;;;;;12.57;6.87;;;5.90;98.20;;;;;;5135865;27;20043;-74
2022/04/17 05:40:35;;;;;;;12.73;6.93;;;5.90;98.10;;;;;;5136012;27;20051;-74
2022/04/17 05:43:02;;;;;;;11.18;6.60;;;6.00;98.10;;;;;;5135728;27;20473;-74
2022/04/17 05:45:28;;;;;;;11.07;7.43;;;6.00;97.70;;;;;;5136080;27;20050;-74
2022/04/17 05:47:54;;;;;;;12.87;7.27;;;6.10;97.90;;;;;;5135625;27;20395;-74
2022/04/17 05:50:20;;;;;;;10.60;6.85;;;6.10;97.60;;;;;;5135790;27;20281;-74
2022/04/17 05:52:46;;;;;;;13.00;7.77;;;6.20;97.70;;;;;;5135737;27;20043;-74
2022/04/17 05:55:12;;;;;;;10.77;6.57;;;6.30;96.90;;;;;;5135435;27;20126;-75
2022/04/17 05:57:37;;;;;;;9.17;6.23;;;6.30;96.90;;;;;;5135659;27;20122;-75
2022/04/17 06:00:08;;;;;;;10.57;6.90;;;6.40;96.90;;;;;;5134740;27;20051;-74
2022/04/17 06:02:35;;;;;;;12.20;6.60;;;6.50;96.30;;;;;;5134711;27;20394;-74
2022/04/17 06:05:03;;;;;;;10.07;6.88;;;6.90;99.90;;;;;;5135364;27;20551;-74
2022/04/17 06:07:29;;;;;;;10.93;7.10;;;;;;;;;;5135539;27;20089;-74
2022/04/17 06:09:55;;;;;;;10.73;6.95;;;9.70;94.10;;;;;;5135183;27;20043;-74
2022/04/17 06:12:21;;;;;;;13.83;6.43;;;11.70;66.90;;;;;;5135418;27;20092;-74
2022/04/17 06:14:47;;;;;;;9.67;6.80;;;12.40;62.60;;;;;;5135353;27;20391;-74
2022/04/17 06:17:13;;;;;;;10.23;6.93;;;;;;;;;;5135070;27;20090;-74
2022/04/17 06:19:38;;;;;;;8.80;5.90;;;13.90;55.50;;;;;;5135213;27;20548;-75
2022/04/17 06:22:04;;;;;;;9.47;6.07;;;14.70;56.60;;;;;;5135053;27;20285;-75
2022/04/17 06:24:30;;;;;;;10.23;6.93;;;15.60;55.40;;;;;;5135180;27;20043;-75
2022/04/17 06:26:56;;;;;;;10.97;6.00;;;16.30;52.20;;;;;;5135164;27;20042;-75
2022/04/17 06:29:21;;;;;;;9.67;6.07;;;16.80;51.60;;;;;;5134848;27;20121;-75
2022/04/17 06:31:47;;;;;;;8.43;5.97;;;17.20;49.30;;;;;;5133798;27;20041;-75
2022/04/17 06:34:13;;;;;;;10.70;6.77;;;17.60;48.30;;;;;;5133480;27;20054;-75
2022/04/17 06:36:39;;;;;;;9.00;6.30;;;17.90;47.00;;;;;;5134513;27;20050;-75
2022/04/17 06:39:05;;;;;;;9.00;6.23;;;18.50;46.70;;;;;;5134380;27;20755;-75
2022/04/17 06:41:31;;;;;;;15.40;7.17;;;18.80;44.90;;;;;;5134642;27;20285;-75
2022/04/17 06:43:57;;;;;;;8.67;6.07;;;19.10;44.10;;;;;;5134064;27;20760;-75
2022/04/17 06:46:23;;;;;;;9.00;6.47;;;19.50;43.40;;;;;;5134099;27;20043;-75
2022/04/17 06:48:49;;;;;;;7.97;6.10;;;;;;;;;;5134755;27;20438;-75
2022/04/17 06:51:15;;;;;;;8.10;6.10;;;20.40;40.80;;;;;;5134469;27;20039;-75
2022/04/17 06:53:41;;;;;;;9.87;6.70;;;20.70;40.70;;;;;;5134694;27;20065;-73
2022/04/17 06:56:07;;;;;;;8.57;5.90;;;21.20;40.30;;;;;;5134336;27;20462;-73
2022/04/17 06:58:33;;;;;;;8.73;6.43;;;21.10;39.00;;;;;;5134690;27;20043;-73
2022/04/17 07:00:59;;;;;;;8.90;6.90;;;21.30;38.70;;;;;;5134565;27;20104;-73
2022/04/17 07:03:25;;;;;;;10.23;7.43;;;21.70;38.40;;;;;;5134366;27;20478;-73
2022/04/17 07:05:52;;;;;;;8.73;6.30;;;21.80;40.60;;;;;;5134388;27;20039;-72
2022/04/17 07:08:18;;;;;;;8.10;6.00;;;21.80;42.90;;;;;;5134225;27;20050;-73
2022/04/17 07:10:43;;;;;;;8.23;6.10;;;21.70;37.10;;;;;;5134188;27;20039;-73
2022/04/17 07:13:18;;;;;;;9.33;6.23;;;22.00;36.10;;;;;;5134108;27;20118;-73
2022/04/17 07:15:43;;;;;;;9.15;6.05;;;22.60;34.50;;;;;;5132978;27;20039;-73
2022/04/17 07:18:10;;;;;;;11.50;6.13;;;22.40;35.40;;;;;;5134103;27;20073;-73
2022/04/17 07:20:35;;;;;;;9.47;6.80;;;22.70;35.50;;;;;;5134396;27;20125;-73
2022/04/17 07:23:01;;;;;;;9.47;6.53;;;22.80;35.00;;;;;;5134334;27;20534;-73
2022/04/17 07:25:27;;;;;;;10.80;6.93;;;23.20;35.00;;;;;;5134173;27;20046;-73
2022/04/17 07:27:55;;;;;;;9.03;6.63;;;23.00;34.40;;;;;;5134191;27;20130;-73
2022/04/17 07:30:32;;;;;;;10.30;6.10;;;23.60;34.20;;;;;;5133978;27;20058;-73
2022/04/17 07:33:00;;;;;;;10.03;6.63;;;24.10;38.10;;;;;;5133924;27;20039;-73
2022/04/17 07:35:27;;;;;;;7.73;6.03;;;24.40;33.80;;;;;;5133264;27;20107;-73
2022/04/17 07:37:55;;;;;;;8.43;5.73;;;24.70;33.20;;;;;;5134051;27;20134;-73
2022/04/17 07:40:25;;;;;;;10.87;6.20;;;25.10;32.80;;;;;;5133828;27;20100;-73
2022/04/17 07:42:52;;;;;;;7.87;5.40;;;25.20;31.00;;;;;;5133659;27;20051;-73
2022/04/17 07:45:18;;;;;;;8.33;5.67;;;25.40;30.90;;;;;;5133477;27;20121;-73
2022/04/17 07:47:45;;;;;;;7.97;5.83;;;25.30;30.40;;;;;;5133883;27;20059;-73
2022/04/17 07:50:15;;;;;;;8.90;5.33;;;;;;;;;;5133605;27;20055;-73
2022/04/17 07:52:42;;;;;;;11.10;6.50;;;24.60;29.50;;;;;;5134145;28;20379;-73
2022/04/17 07:55:10;;;;;;;7.63;5.40;;;;;;;;;;5133663;27;20055;-74
2022/04/17 08:00:22;;;;;;;;;;;;;;;;;;5134083;28;20483;-73
2022/04/17 08:03:10;;;;;;;8.27;5.87;;;;;;;;;;5133839;27;19919;-74
2022/04/17 08:05:39;;;;;;;8.43;5.90;;;;;;;;;;5133801;28;20044;-74
2022/04/17 08:08:09;;;;;;;11.73;5.90;;;19.00;34.60;;;;;;5133875;28;20043;-74
2022/04/17 08:10:35;;;;;;;7.70;6.07;;;18.50;36.10;;;;;;5134014;27;20126;-74
2022/04/17 08:13:02;;;;;;;8.57;5.90;;;;;;;;;;5133790;27;20050;-74
2022/04/17 08:15:27;;;;;;;7.80;5.17;;;17.80;40.60;;;;;;5132209;28;20062;-73
2022/04/17 08:17:54;;;;;;;11.87;4.80;;;;;;;;;;5133654;27;20039;-73
2022/04/17 08:20:20;;;;;;;8.67;5.17;;;17.30;37.90;;;;;;5133377;28;20448;-74
2022/04/17 08:22:46;;;;;;;7.53;5.10;;;17.30;37.60;;;;;;5135002;27;20047;-74
2022/04/17 08:25:12;;;;;;;6.80;4.93;;;;;;;;;;5137311;27;20035;-74
2022/04/17 08:27:48;;;;;;;9.93;5.37;;;16.90;37.60;;;;;;5137427;27;20479;-74
2022/04/17 08:30:19;;;;;;;8.07;5.73;;;;;;;;;;5137253;27;20100;-74
2022/04/17 08:32:45;;;;;;;8.57;5.57;;;;;;;;;;5137394;27;20043;-74
2022/04/17 08:35:10;;;;;;;8.27;4.90;;;16.70;74.40;;;;;;5136752;27;20043;-74
2022/04/17 08:37:36;;;;;;;8.73;4.97;;;16.50;39.30;;;;;;5137242;27;20059;-74
2022/04/17 08:40:04;;;;;;;7.37;5.23;;;16.40;39.50;;;;;;5137321;27;20043;-74
2022/04/17 08:42:31;;;;;;;7.17;4.80;;;16.30;39.50;;;;;;5137044;27;20064;-73
2022/04/17 08:44:57;;;;;;;7.10;4.57;;;;;;;;;;5137193;27;20051;-73
2022/04/17 08:47:24;;;;;;;8.20;5.37;;;15.80;40.00;;;;;;5137095;27;20043;-74
2022/04/17 08:49:50;;;;;;;10.17;5.27;;;15.80;40.50;;;;;;5136924;27;20059;-74
2022/04/17 08:52:17;;;;;;;11.37;5.60;;;15.70;41.20;;;;;;5136689;27;20047;-74
2022/04/17 08:54:44;;;;;;;10.93;5.60;;;15.60;41.40;;;;;;5135944;27;20042;-74
2022/04/17 08:57:11;;;;;;;7.97;5.47;;;15.50;41.70;;;;;;5135532;27;20108;-74
2022/04/17 08:59:37;;;;;;;6.93;5.10;;;15.40;41.80;;;;;;5136707;27;20078;-74
2022/04/17 09:02:08;;;;;;;8.00;4.97;;;15.40;42.20;;;;;;5136376;27;20081;-75
2022/04/17 09:04:34;;;;;;;8.80;5.43;;;15.30;42.10;;;;;;5136618;27;20047;-74
2022/04/17 09:07:00;;;;;;;7.57;5.10;;;15.20;42.10;;;;;;5136655;27;20079;-74
2022/04/17 09:09:26;;;;;;;8.37;5.17;;;15.10;42.20;;;;;;5136222;27;20459;-74
2022/04/17 09:11:55;;;;;;;9.80;6.53;;;15.10;42.20;;;;;;5136688;27;20047;-74
2022/04/17 09:14:21;;;;;;;8.27;5.10;;;15.10;42.50;;;;;;5136362;27;20070;-74
2022/04/17 09:16:50;;;;;;;7.33;5.13;;;15.10;42.30;;;;;;5136635;27;20472;-74
2022/04/17 09:19:17;;;;;;;8.53;5.63;;;15.10;42.60;;;;;;5136205;27;20076;-74
2022/04/17 09:21:43;;;;;;;8.63;4.90;;;15.10;42.40;;;;;;5136406;27;20487;-74
2022/04/17 09:24:17;;;;;;;7.97;4.97;;;15.10;42.80;;;;;;5136291;27;20286;-74
2022/04/17 09:26:56;;;;;;;9.07;4.90;;;15.10;43.00;;;;;;5136227;27;20284;-74
2022/04/17 09:29:38;;;;;;;7.93;5.37;;;15.10;42.70;;;;;;5135941;27;20276;-74
2022/04/17 09:32:07;;;;;;;8.80;5.00;;;14.90;42.90;;;;;;5135929;27;20050;-74
2022/04/17 09:34:55;;;;;;;7.77;4.40;;;14.90;43.00;;;;;;5135588;27;20387;-74
2022/04/17 09:37:27;;;;;;;9.47;5.20;;;14.80;42.90;;;;;;5134204;27;20343;-74
2022/04/17 09:40:04;;;;;;;9.73;4.93;;;14.80;43.50;;;;;;5135715;27;20107;-74
2022/04/17 09:42:30;;;;;;;7.67;4.57;;;14.80;43.10;;;;;;5135521;27;20410;-74
2022/04/17 09:44:57;;;;;;;6.37;4.37;;;14.80;43.40;;;;;;5135878;27;20364;-74
2022/04/17 09:47:26;;;;;;;7.20;4.53;;;14.80;43.60;;;;;;5135723;27;20368;-74
2022/04/17 09:50:06;;;;;;;8.27;4.20;;;14.80;43.40;;;;;;5136217;27;20441;-74
2022/04/17 09:52:56;;;;;;;7.40;4.70;;;14.80;43.80;;;;;;5135542;27;20280;-74
2022/04/17 09:55:28;;;;;;;8.17;4.47;;;14.90;43.80;;;;;;5135906;27;20284;-73
2022/04/17 09:57:58;;;;;;;6.87;4.23;;;14.90;43.50;;;;;;5135680;27;20284;-74
2022/04/17 10:00:24;;;;;;;9.43;5.17;;;14.90;43.60;;;;;;5135609;27;20606;-74
2022/04/17 10:02:50;;;;;;;7.43;4.40;;;15.00;43.70;;;;;;5135612;27;20287;-74
2022/04/17 10:05:18;;;;;;;7.30;4.70;;;15.00;43.50;;;;;;5135602;27;20075;-74
2022/04/17 10:07:46;;;;;;;7.47;4.37;;;15.00;43.10;;;;;;5135529;27;20049;-73
2022/04/17 10:10:13;;;;;;;7.07;4.30;;;15.00;43.60;;;;;;5135461;27;20290;-73
2022/04/17 10:12:40;;;;;;;7.80;4.57;;;15.10;43.00;;;;;;5134772;27;20284;-74
2022/04/17 10:15:07;;;;;;;7.63;4.30;;;15.00;43.50;;;;;;5135529;27;20284;-74
2022/04/17 10:17:41;;;;;;;7.23;4.33;;;15.00;43.00;;;;;;5135050;27;20383;-74
2022/04/17 10:20:11;;;;;;;7.57;4.60;;;15.00;43.40;;;;;;5135586;27;20298;-74
2022/04/17 10:22:38;;;;;;;7.93;4.10;;;15.10;43.80;;;;;;5133804;27;20050;-74
2022/04/17 10:25:07;;;;;;;7.10;4.13;;;15.10;43.50;;;;;;5151276;27;20373;-74
2022/04/17 10:28:03;;;;;;;6.20;3.50;;;15.10;42.70;;;;;;5134865;27;20277;-74
2022/04/17 10:31:04;;;;;;;6.63;4.17;;;15.10;41.40;;;;;;5131392;27;20324;-74
2022/04/17 10:33:50;;;;;;;6.57;3.43;;;15.10;41.50;;;;;;5134813;27;20515;-74
2022/04/17 10:36:43;;;;;;;4.97;3.10;;;15.10;40.00;;;;;;5134249;27;20819;-74
2022/04/17 10:39:28;;;;;;;7.00;3.40;;;15.10;41.60;;;;;;5134957;27;20281;-74
2022/04/17 10:41:54;;;;;;;7.75;4.15;;;15.20;40.00;;;;;;5135223;27;20316;-74
2022/04/17 10:44:21;;;;;;;8.70;3.67;;;15.10;40.40;;;;;;5135016;27;20066;-74
2022/04/17 10:46:49;;;;;;;7.13;4.07;;;15.10;41.60;;;;;;5134582;27;20283;-74
2022/04/17 10:49:26;;;;;;;6.17;3.87;;;15.10;41.30;;;;;;5134917;27;20281;-74
2022/04/17 10:51:57;;;;;;;6.73;3.90;;;15.10;41.10;;;;;;5134814;27;20269;-74
2022/04/17 10:54:24;;;;;;;7.20;4.27;;;15.10;41.60;;;;;;5134540;27;20273;-74
2022/04/17 10:57:00;;;;;;;7.60;4.17;;;15.10;41.50;;;;;;5134606;27;20296;-74
2022/04/17 10:59:34;;;;;;;8.00;4.23;;;15.20;41.50;;;;;;5134593;27;20737;-74
2022/04/17 11:02:02;;;;;;;7.30;3.83;;;15.20;41.90;;;;;;5134640;27;20277;-76
2022/04/17 11:04:37;;;;;;;6.50;3.83;;;15.10;41.70;;;;;;5134331;27;20790;-75
2022/04/17 11:07:09;;;;;;;9.15;4.45;;;15.20;41.90;;;;;;5134480;27;20272;-75
2022/04/17 11:09:41;;;;;;;9.20;5.13;;;15.20;41.90;;;;;;5134274;27;20062;-75
2022/04/17 11:12:10;;;;;;;7.00;4.30;;;15.30;42.60;;;;;;5134502;27;20363;-75
2022/04/17 11:14:39;;;;;;;8.33;4.30;;;15.30;42.70;;;;;;5134113;27;20285;-75
2022/04/17 11:17:11;;;;;;;8.97;4.20;;;15.30;42.80;;;;;;5134468;27;20315;-75
2022/04/17 11:19:39;;;;;;;6.63;4.13;;;15.30;43.10;;;;;;5134175;27;20280;-75
2022/04/17 11:22:07;;;;;;;7.03;3.83;;;15.30;42.40;;;;;;5134358;27;20281;-75
2022/04/17 11:24:54;;;;;;;7.60;4.47;;;15.30;42.20;;;;;;5133993;27;20288;-75
2022/04/17 11:27:36;;;;;;;7.37;4.23;;;15.30;42.20;;;;;;5134137;27;20321;-75
2022/04/17 11:30:09;;;;;;;7.37;4.30;;;15.40;42.50;;;;;;5134443;27;20319;-75
2022/04/17 11:32:35;;;;;;;7.30;5.00;;;15.40;42.60;;;;;;5132725;27;20280;-75
2022/04/17 11:35:03;;;;;;;9.43;4.83;;;15.30;42.70;;;;;;5134070;27;20345;-75
2022/04/17 11:37:31;;;;;;;7.63;4.87;;;15.30;42.60;;;;;;5133736;27;20051;-75
2022/04/17 11:39:58;;;;;;;8.20;4.83;;;15.40;42.70;;;;;;5133960;27;20289;-75
2022/04/17 11:42:31;;;;;;;8.33;4.57;;;15.40;43.10;;;;;;5133113;28;20349;-75
2022/04/17 11:45:00;;;;;;;8.20;4.30;;;15.50;42.70;;;;;;5134108;28;20866;-75
2022/04/17 11:47:26;;;;;;;7.73;5.10;;;15.60;42.60;;;;;;5133932;27;20276;-75
2022/04/17 11:49:52;;;;;;;6.80;4.50;;;15.50;42.20;;;;;;5134119;27;20333;-75
2022/04/17 11:52:20;;;;;;;7.40;4.93;;;15.50;42.50;;;;;;5133939;28;20280;-75
2022/04/17 11:54:48;;;;;;;7.20;4.10;;;15.50;42.60;;;;;;5133548;27;20047;-75
2022/04/17 11:57:14;;;;;;;7.23;4.40;;;15.60;42.10;;;;;;5134398;27;20288;-75
2022/04/17 11:59:51;;;;;;;7.90;4.23;;;15.60;42.20;;;;;;5137813;27;20280;-74
2022/04/17 12:02:18;;;;;;;8.53;4.70;;;15.50;41.70;;;;;;5137996;27;20288;-75
2022/04/17 12:04:45;;;;;;;6.97;4.53;;;15.60;41.90;;;;;;5137397;27;20296;-75
2022/04/17 12:07:12;;;;;;;7.40;4.83;;;15.60;41.60;;;;;;5137783;27;20756;-75
2022/04/17 12:09:39;;;;;;;6.97;4.33;;;15.60;40.80;;;;;;5137692;27;20277;-75
2022/04/17 12:12:16;;;;;;;7.43;4.30;;;15.50;41.60;;;;;;5137818;27;20291;-75
2022/04/17 12:14:43;;;;;;;9.80;4.67;;;15.60;41.20;;;;;;5137677;27;20276;-74
2022/04/17 12:17:08;;;;;;;7.40;4.10;;;15.60;41.00;;;;;;5137651;27;20836;-75
2022/04/17 12:19:34;;;;;;;7.00;4.23;;;15.70;41.30;;;;;;5137543;27;20272;-75
2022/04/17 12:22:13;;;;;;;6.13;4.33;;;15.70;41.30;;;;;;5137624;27;20043;-75
2022/04/17 12:24:43;;;;;;;7.77;4.83;;;15.70;41.80;;;;;;5137403;27;20525;-75
2022/04/17 12:27:10;;;;;;;7.53;4.37;;;15.80;40.70;;;;;;5137673;27;20277;-75
2022/04/17 12:29:40;;;;;;;7.03;4.10;;;15.80;39.60;;;;;;5137314;27;20273;-75
2022/04/17 12:32:42;;;;;;;5.90;3.93;;;15.80;40.30;;;;;;5137476;27;20395;-75
2022/04/17 12:35:08;;;;;;;6.57;3.90;;;15.80;40.70;;;;;;5136566;27;20624;-75
2022/04/17 12:37:34;;;;;;;6.83;4.00;;;15.80;39.90;;;;;;5137117;27;20304;-75
2022/04/17 12:40:11;;;;;;;5.97;3.40;;;15.80;39.90;;;;;;5136256;27;20301;-75
2022/04/17 12:42:37;;;;;;;6.70;3.63;;;15.90;40.00;;;;;;5136800;27;20574;-74
2022/04/17 12:45:05;;;;;;;7.53;3.37;;;15.90;40.10;;;;;;5137039;27;20768;-75
2022/04/17 12:47:30;;;;;;;5.67;3.50;;;15.90;40.00;;;;;;5137371;27;20703;-75
2022/04/17 12:50:07;;;;;;;8.83;4.07;;;15.90;39.70;;;;;;5136862;27;20309;-75
2022/04/17 12:52:33;;;;;;;6.47;4.03;;;15.90;39.90;;;;;;5137376;27;20436;-76
2022/04/17 12:55:11;;;;;;;5.67;3.57;;;16.10;39.50;;;;;;5137009;27;20795;-75
2022/04/17 12:57:38;;;;;;;5.53;3.67;;;16.00;39.10;;;;;;5136690;27;20786;-75
2022/04/17 13:00:27;;;;;;;6.93;3.80;;;16.00;39.40;;;;;;5137290;27;20281;-76
2022/04/17 13:03:13;;;;;;;5.50;3.67;;;15.90;39.40;;;;;;5127106;27;20288;-76
2022/04/17 13:05:39;;;;;;;6.10;3.80;;;15.90;38.60;;;;;;5135897;27;20289;-75
2022/04/17 13:08:06;;;;;;;5.90;3.83;;;16.00;38.70;;;;;;5136413;27;20303;-76
2022/04/17 13:10:32;;;;;;;8.33;3.83;;;16.00;39.30;;;;;;5136392;27;20289;-76
2022/04/17 13:12:58;;;;;;;6.20;3.97;;;16.00;39.10;;;;;;5136496;27;20273;-76
2022/04/17 13:15:34;;;;;;;6.60;4.20;;;16.00;39.10;;;;;;5136630;27;20368;-76